sensor_id;sensor_type;location;lat;lon;timestamp;temperature;humidity
20066;DHT22;10193;48.884;9.182;2022-12-11T00:01:24;0.90;68.50
20066;DHT22;10193;48.884;9.182;2022-12-11T00:03:51;0.90;68.70
20066;DHT22;10193;48.884;9.182;2022-12-11T00:06:21;0.90;68.90
20066;DHT22;10193;48.884;9.182;2022-12-11T00:08:50;0.90;69.00
20066;DHT22;10193;48.884;9.182;2022-12-11T00:11:17;0.90;69.10
20066;DHT22;10193;48.884;9.182;2022-12-11T00:13:44;1.00;69.20
20066;DHT22;10193;48.884;9.182;2022-12-11T00:16:11;1.00;69.20
20066;DHT22;10193;48.884;9.182;2022-12-11T00:18:38;1.10;69.30
20066;DHT22;10193;48.884;9.182;2022-12-11T00:21:09;1.10;69.30
20066;DHT22;10193;48.884;9.182;2022-12-11T00:23:37;1.10;69.20
20066;DHT22;10193;48.884;9.182;2022-12-11T00:26:05;1.10;69.00
20066;DHT22;10193;48.884;9.182;2022-12-11T00:28:32;1.20;69.10
20066;DHT22;10193;48.884;9.182;2022-12-11T00:31:02;1.20;69.00
20066;DHT22;10193;48.884;9.182;2022-12-11T00:33:29;1.20;68.90
20066;DHT22;10193;48.884;9.182;2022-12-11T00:35:55;1.20;68.80
20066;DHT22;10193;48.884;9.182;2022-12-11T00:38:22;1.20;68.90
20066;DHT22;10193;48.884;9.182;2022-12-11T00:40:50;1.20;68.90
20066;DHT22;10193;48.884;9.182;2022-12-11T00:43:17;1.20;69.00
20066;DHT22;10193;48.884;9.182;2022-12-11T00:45:45;1.30;69.10
20066;DHT22;10193;48.884;9.182;2022-12-11T00:48:12;1.30;69.20
20066;DHT22;10193;48.884;9.182;2022-12-11T00:50:39;1.30;69.20
20066;DHT22;10193;48.884;9.182;2022-12-11T00:53:06;1.30;69.30
20066;DHT22;10193;48.884;9.182;2022-12-11T00:55:38;1.30;69.40
20066;DHT22;10193;48.884;9.182;2022-12-11T00:58:07;1.40;69.60
20066;DHT22;10193;48.884;9.182;2022-12-11T01:00:34;1.40;69.50
20066;DHT22;10193;48.884;9.182;2022-12-11T01:03:01;1.40;69.50
20066;DHT22;10193;48.884;9.182;2022-12-11T01:05:27;1.50;69.50
20066;DHT22;10193;48.884;9.182;2022-12-11T01:07:54;1.50;69.50
20066;DHT22;10193;48.884;9.182;2022-12-11T01:10:21;1.50;69.50
20066;DHT22;10193;48.884;9.182;2022-12-11T01:12:51;1.50;69.50
20066;DHT22;10193;48.884;9.182;2022-12-11T01:15:20;1.50;69.50
20066;DHT22;10193;48.884;9.182;2022-12-11T01:17:47;1.60;69.40
20066;DHT22;10193;48.884;9.182;2022-12-11T01:20:15;1.60;69.30
20066;DHT22;10193;48.884;9.182;2022-12-11T01:22:41;1.60;69.30
20066;DHT22;10193;48.884;9.182;2022-12-11T01:25:08;1.60;69.30
20066;DHT22;10193;48.884;9.182;2022-12-11T01:27:35;1.60;69.20
20066;DHT22;10193;48.884;9.182;2022-12-11T01:30:03;1.70;69.30
20066;DHT22;10193;48.884;9.182;2022-12-11T01:32:32;1.70;69.20
20066;DHT22;10193;48.884;9.182;2022-12-11T01:34:59;1.70;69.10
20066;DHT22;10193;48.884;9.182;2022-12-11T01:37:25;1.70;69.00
20066;DHT22;10193;48.884;9.182;2022-12-11T01:39:52;1.70;68.90
20066;DHT22;10193;48.884;9.182;2022-12-11T01:42:19;1.70;68.90
20066;DHT22;10193;48.884;9.182;2022-12-11T01:48:10;1.60;69.00
20066;DHT22;10193;48.884;9.182;2022-12-11T01:50:41;1.70;69.10
20066;DHT22;10193;48.884;9.182;2022-12-11T01:53:14;1.70;69.00
20066;DHT22;10193;48.884;9.182;2022-12-11T01:55:42;1.70;69.10
20066;DHT22;10193;48.884;9.182;2022-12-11T01:58:11;1.70;69.20
20066;DHT22;10193;48.884;9.182;2022-12-11T02:00:37;1.70;69.20
20066;DHT22;10193;48.884;9.182;2022-12-11T02:03:04;1.70;69.20
20066;DHT22;10193;48.884;9.182;2022-12-11T02:05:32;1.70;69.20
20066;DHT22;10193;48.884;9.182;2022-12-11T02:08:00;1.70;69.30
20066;DHT22;10193;48.884;9.182;2022-12-11T02:10:40;1.70;69.40
20066;DHT22;10193;48.884;9.182;2022-12-11T02:13:13;1.70;69.40
20066;DHT22;10193;48.884;9.182;2022-12-11T02:15:47;1.80;69.50
20066;DHT22;10193;48.884;9.182;2022-12-11T02:18:19;1.80;69.50
20066;DHT22;10193;48.884;9.182;2022-12-11T02:20:54;1.80;69.50
20066;DHT22;10193;48.884;9.182;2022-12-11T02:23:52;1.80;69.40
20066;DHT22;10193;48.884;9.182;2022-12-11T02:26:39;1.80;69.40
20066;DHT22;10193;48.884;9.182;2022-12-11T02:29:17;1.90;69.50
20066;DHT22;10193;48.884;9.182;2022-12-11T02:31:49;1.90;69.60
20066;DHT22;10193;48.884;9.182;2022-12-11T02:34:21;1.90;69.50
20066;DHT22;10193;48.884;9.182;2022-12-11T02:36:53;1.90;69.60
20066;DHT22;10193;48.884;9.182;2022-12-11T02:39:21;1.90;69.60
20066;DHT22;10193;48.884;9.182;2022-12-11T02:41:50;2.00;69.70
20066;DHT22;10193;48.884;9.182;2022-12-11T02:44:21;2.00;69.70
20066;DHT22;10193;48.884;9.182;2022-12-11T02:46:50;2.00;69.60
20066;DHT22;10193;48.884;9.182;2022-12-11T02:49:18;2.00;69.70
20066;DHT22;10193;48.884;9.182;2022-12-11T02:51:46;2.10;69.80
20066;DHT22;10193;48.884;9.182;2022-12-11T02:54:15;2.10;69.70
20066;DHT22;10193;48.884;9.182;2022-12-11T02:56:46;2.10;69.70
20066;DHT22;10193;48.884;9.182;2022-12-11T02:59:20;2.10;69.60
20066;DHT22;10193;48.884;9.182;2022-12-11T03:01:49;2.10;69.60
20066;DHT22;10193;48.884;9.182;2022-12-11T03:04:16;2.10;69.50
20066;DHT22;10193;48.884;9.182;2022-12-11T03:06:46;2.10;69.50
20066;DHT22;10193;48.884;9.182;2022-12-11T03:09:14;2.20;69.50
20066;DHT22;10193;48.884;9.182;2022-12-11T03:11:41;2.20;69.40
20066;DHT22;10193;48.884;9.182;2022-12-11T03:14:08;2.20;69.40
20066;DHT22;10193;48.884;9.182;2022-12-11T03:16:37;2.20;69.40
20066;DHT22;10193;48.884;9.182;2022-12-11T03:19:10;2.20;69.40
20066;DHT22;10193;48.884;9.182;2022-12-11T03:21:45;2.20;69.40
20066;DHT22;10193;48.884;9.182;2022-12-11T03:24:20;2.20;69.30
20066;DHT22;10193;48.884;9.182;2022-12-11T03:26:53;2.20;69.30
20066;DHT22;10193;48.884;9.182;2022-12-11T03:29:23;2.30;69.40
20066;DHT22;10193;48.884;9.182;2022-12-11T03:31:55;2.30;69.30
20066;DHT22;10193;48.884;9.182;2022-12-11T03:34:26;2.30;69.30
20066;DHT22;10193;48.884;9.182;2022-12-11T03:36:55;2.30;69.30
20066;DHT22;10193;48.884;9.182;2022-12-11T03:39:26;2.30;69.30
20066;DHT22;10193;48.884;9.182;2022-12-11T03:41:55;2.30;69.30
20066;DHT22;10193;48.884;9.182;2022-12-11T03:44:23;2.30;69.20
20066;DHT22;10193;48.884;9.182;2022-12-11T03:46:52;2.30;69.20
20066;DHT22;10193;48.884;9.182;2022-12-11T03:49:22;2.30;69.20
20066;DHT22;10193;48.884;9.182;2022-12-11T03:51:52;2.30;69.10
20066;DHT22;10193;48.884;9.182;2022-12-11T03:54:22;2.20;68.90
20066;DHT22;10193;48.884;9.182;2022-12-11T03:56:50;2.30;69.00
20066;DHT22;10193;48.884;9.182;2022-12-11T03:59:18;2.20;69.00
20066;DHT22;10193;48.884;9.182;2022-12-11T04:01:45;2.20;69.00
20066;DHT22;10193;48.884;9.182;2022-12-11T04:04:13;2.20;69.00
20066;DHT22;10193;48.884;9.182;2022-12-11T04:06:40;2.20;69.00
20066;DHT22;10193;48.884;9.182;2022-12-11T04:09:06;2.20;69.00
20066;DHT22;10193;48.884;9.182;2022-12-11T04:11:33;2.20;69.00
20066;DHT22;10193;48.884;9.182;2022-12-11T04:14:00;2.20;69.00
20066;DHT22;10193;48.884;9.182;2022-12-11T04:16:44;2.20;68.90
20066;DHT22;10193;48.884;9.182;2022-12-11T04:19:12;2.20;68.90
20066;DHT22;10193;48.884;9.182;2022-12-11T04:21:56;2.20;68.80
20066;DHT22;10193;48.884;9.182;2022-12-11T04:24:52;2.10;68.70
20066;DHT22;10193;48.884;9.182;2022-12-11T04:27:19;2.10;68.60
20066;DHT22;10193;48.884;9.182;2022-12-11T04:29:59;2.10;68.60
20066;DHT22;10193;48.884;9.182;2022-12-11T04:32:26;2.10;68.50
20066;DHT22;10193;48.884;9.182;2022-12-11T04:34:54;2.10;68.50
20066;DHT22;10193;48.884;9.182;2022-12-11T04:37:21;2.00;68.40
20066;DHT22;10193;48.884;9.182;2022-12-11T04:39:47;2.00;68.50
20066;DHT22;10193;48.884;9.182;2022-12-11T04:42:14;2.00;68.60
20066;DHT22;10193;48.884;9.182;2022-12-11T04:44:41;2.00;68.60
20066;DHT22;10193;48.884;9.182;2022-12-11T04:47:08;2.00;68.60
20066;DHT22;10193;48.884;9.182;2022-12-11T04:49:34;1.90;68.50
20066;DHT22;10193;48.884;9.182;2022-12-11T04:52:03;1.90;68.60
20066;DHT22;10193;48.884;9.182;2022-12-11T04:54:29;1.90;68.70
20066;DHT22;10193;48.884;9.182;2022-12-11T04:56:56;1.90;68.80
20066;DHT22;10193;48.884;9.182;2022-12-11T04:59:23;1.90;68.90
20066;DHT22;10193;48.884;9.182;2022-12-11T05:01:50;1.90;68.90
20066;DHT22;10193;48.884;9.182;2022-12-11T05:04:16;1.90;68.70
20066;DHT22;10193;48.884;9.182;2022-12-11T05:06:43;1.90;68.60
20066;DHT22;10193;48.884;9.182;2022-12-11T05:09:12;1.90;68.60
20066;DHT22;10193;48.884;9.182;2022-12-11T05:11:39;1.90;68.40
20066;DHT22;10193;48.884;9.182;2022-12-11T05:14:06;1.80;68.20
20066;DHT22;10193;48.884;9.182;2022-12-11T05:16:33;1.90;68.10
20066;DHT22;10193;48.884;9.182;2022-12-11T05:19:00;1.80;67.90
20066;DHT22;10193;48.884;9.182;2022-12-11T05:21:26;1.70;67.70
20066;DHT22;10193;48.884;9.182;2022-12-11T05:23:53;1.70;67.70
20066;DHT22;10193;48.884;9.182;2022-12-11T05:26:21;1.70;67.70
20066;DHT22;10193;48.884;9.182;2022-12-11T05:28:50;1.60;67.60
20066;DHT22;10193;48.884;9.182;2022-12-11T05:31:19;1.60;67.70
20066;DHT22;10193;48.884;9.182;2022-12-11T05:33:47;1.50;67.70
20066;DHT22;10193;48.884;9.182;2022-12-11T05:36:16;1.50;67.70
20066;DHT22;10193;48.884;9.182;2022-12-11T05:38:43;1.40;67.60
20066;DHT22;10193;48.884;9.182;2022-12-11T05:41:12;1.40;67.70
20066;DHT22;10193;48.884;9.182;2022-12-11T05:43:40;1.30;67.50
20066;DHT22;10193;48.884;9.182;2022-12-11T05:46:09;1.30;67.40
20066;DHT22;10193;48.884;9.182;2022-12-11T05:48:36;1.30;67.50
20066;DHT22;10193;48.884;9.182;2022-12-11T05:51:03;1.20;67.40
20066;DHT22;10193;48.884;9.182;2022-12-11T05:53:31;1.20;67.50
20066;DHT22;10193;48.884;9.182;2022-12-11T05:56:00;1.10;67.50
20066;DHT22;10193;48.884;9.182;2022-12-11T05:58:27;1.10;67.60
20066;DHT22;10193;48.884;9.182;2022-12-11T06:00:55;1.10;67.60
20066;DHT22;10193;48.884;9.182;2022-12-11T06:03:22;1.00;67.60
20066;DHT22;10193;48.884;9.182;2022-12-11T06:05:48;1.00;67.70
20066;DHT22;10193;48.884;9.182;2022-12-11T06:08:15;1.00;67.70
20066;DHT22;10193;48.884;9.182;2022-12-11T06:10:44;0.90;67.80
20066;DHT22;10193;48.884;9.182;2022-12-11T06:13:11;0.90;67.90
20066;DHT22;10193;48.884;9.182;2022-12-11T06:15:37;0.90;67.90
20066;DHT22;10193;48.884;9.182;2022-12-11T06:18:05;0.80;67.90
20066;DHT22;10193;48.884;9.182;2022-12-11T06:20:32;0.80;67.90
20066;DHT22;10193;48.884;9.182;2022-12-11T06:23:00;0.80;68.00
20066;DHT22;10193;48.884;9.182;2022-12-11T06:25:27;0.80;68.00
20066;DHT22;10193;48.884;9.182;2022-12-11T06:27:54;0.80;68.00
20066;DHT22;10193;48.884;9.182;2022-12-11T06:30:21;0.80;68.00
20066;DHT22;10193;48.884;9.182;2022-12-11T06:32:47;0.80;68.10
20066;DHT22;10193;48.884;9.182;2022-12-11T06:35:16;0.70;68.00
20066;DHT22;10193;48.884;9.182;2022-12-11T06:37:42;0.70;68.10
20066;DHT22;10193;48.884;9.182;2022-12-11T06:40:10;0.70;68.10
20066;DHT22;10193;48.884;9.182;2022-12-11T06:42:37;0.70;68.10
20066;DHT22;10193;48.884;9.182;2022-12-11T06:45:05;0.70;68.20
20066;DHT22;10193;48.884;9.182;2022-12-11T06:47:31;0.70;68.10
20066;DHT22;10193;48.884;9.182;2022-12-11T06:49:58;0.70;68.00
20066;DHT22;10193;48.884;9.182;2022-12-11T06:52:27;0.70;68.00
20066;DHT22;10193;48.884;9.182;2022-12-11T06:54:54;0.70;68.20
20066;DHT22;10193;48.884;9.182;2022-12-11T06:57:21;0.70;68.40
20066;DHT22;10193;48.884;9.182;2022-12-11T06:59:48;0.60;68.60
20066;DHT22;10193;48.884;9.182;2022-12-11T07:02:16;0.70;68.70
20066;DHT22;10193;48.884;9.182;2022-12-11T07:04:43;0.70;68.90
20066;DHT22;10193;48.884;9.182;2022-12-11T07:07:10;0.70;69.00
20066;DHT22;10193;48.884;9.182;2022-12-11T07:09:39;0.70;69.20
20066;DHT22;10193;48.884;9.182;2022-12-11T07:12:06;0.70;69.40
20066;DHT22;10193;48.884;9.182;2022-12-11T07:14:34;0.70;69.50
20066;DHT22;10193;48.884;9.182;2022-12-11T07:17:01;0.80;69.60
20066;DHT22;10193;48.884;9.182;2022-12-11T07:19:27;0.80;69.70
20066;DHT22;10193;48.884;9.182;2022-12-11T07:21:54;0.90;69.80
20066;DHT22;10193;48.884;9.182;2022-12-11T07:24:21;0.90;69.80
20066;DHT22;10193;48.884;9.182;2022-12-11T07:26:49;1.00;69.90
20066;DHT22;10193;48.884;9.182;2022-12-11T07:29:17;1.00;69.80
20066;DHT22;10193;48.884;9.182;2022-12-11T07:31:44;1.00;69.80
20066;DHT22;10193;48.884;9.182;2022-12-11T07:34:11;1.10;69.80
20066;DHT22;10193;48.884;9.182;2022-12-11T07:36:38;1.10;69.90
20066;DHT22;10193;48.884;9.182;2022-12-11T07:39:05;1.20;70.00
20066;DHT22;10193;48.884;9.182;2022-12-11T07:41:32;1.20;70.00
20066;DHT22;10193;48.884;9.182;2022-12-11T07:44:02;1.20;70.00
20066;DHT22;10193;48.884;9.182;2022-12-11T07:46:30;1.30;70.10
20066;DHT22;10193;48.884;9.182;2022-12-11T07:48:57;1.30;70.10
20066;DHT22;10193;48.884;9.182;2022-12-11T07:51:26;1.40;70.20
20066;DHT22;10193;48.884;9.182;2022-12-11T07:53:55;1.40;70.90
20066;DHT22;10193;48.884;9.182;2022-12-11T07:56:22;1.50;70.20
20066;DHT22;10193;48.884;9.182;2022-12-11T07:58:49;1.50;70.20
20066;DHT22;10193;48.884;9.182;2022-12-11T08:01:19;1.60;70.10
20066;DHT22;10193;48.884;9.182;2022-12-11T08:03:47;1.50;70.10
20066;DHT22;10193;48.884;9.182;2022-12-11T08:06:13;1.60;70.10
20066;DHT22;10193;48.884;9.182;2022-12-11T08:08:41;1.60;70.10
20066;DHT22;10193;48.884;9.182;2022-12-11T08:11:11;1.60;70.10
20066;DHT22;10193;48.884;9.182;2022-12-11T08:13:39;1.70;70.30
20066;DHT22;10193;48.884;9.182;2022-12-11T08:16:08;1.70;70.30
20066;DHT22;10193;48.884;9.182;2022-12-11T08:18:37;1.70;70.30
20066;DHT22;10193;48.884;9.182;2022-12-11T08:21:05;1.80;70.30
20066;DHT22;10193;48.884;9.182;2022-12-11T08:23:32;1.80;70.30
20066;DHT22;10193;48.884;9.182;2022-12-11T08:26:01;1.80;70.20
20066;DHT22;10193;48.884;9.182;2022-12-11T08:28:28;1.80;70.20
20066;DHT22;10193;48.884;9.182;2022-12-11T08:30:55;1.80;70.20
20066;DHT22;10193;48.884;9.182;2022-12-11T08:33:22;1.90;70.30
20066;DHT22;10193;48.884;9.182;2022-12-11T08:35:50;1.90;70.30
20066;DHT22;10193;48.884;9.182;2022-12-11T08:38:17;2.00;70.50
20066;DHT22;10193;48.884;9.182;2022-12-11T08:40:43;2.00;70.60
20066;DHT22;10193;48.884;9.182;2022-12-11T08:43:10;2.10;70.70
20066;DHT22;10193;48.884;9.182;2022-12-11T08:45:37;2.10;70.80
20066;DHT22;10193;48.884;9.182;2022-12-11T08:48:04;2.10;70.90
20066;DHT22;10193;48.884;9.182;2022-12-11T08:50:30;2.20;70.90
20066;DHT22;10193;48.884;9.182;2022-12-11T08:52:58;2.30;70.80
20066;DHT22;10193;48.884;9.182;2022-12-11T08:55:25;2.30;70.70
20066;DHT22;10193;48.884;9.182;2022-12-11T08:57:52;2.30;70.50
20066;DHT22;10193;48.884;9.182;2022-12-11T09:00:19;2.40;70.50
20066;DHT22;10193;48.884;9.182;2022-12-11T09:02:46;2.40;70.60
20066;DHT22;10193;48.884;9.182;2022-12-11T09:05:13;2.40;70.60
20066;DHT22;10193;48.884;9.182;2022-12-11T09:07:40;2.50;70.80
20066;DHT22;10193;48.884;9.182;2022-12-11T09:10:08;2.50;70.80
20066;DHT22;10193;48.884;9.182;2022-12-11T09:12:35;2.50;70.80
20066;DHT22;10193;48.884;9.182;2022-12-11T09:15:02;2.60;70.90
20066;DHT22;10193;48.884;9.182;2022-12-11T09:17:29;2.60;70.90
20066;DHT22;10193;48.884;9.182;2022-12-11T09:19:56;2.70;70.90
20066;DHT22;10193;48.884;9.182;2022-12-11T09:22:22;2.70;70.80
20066;DHT22;10193;48.884;9.182;2022-12-11T09:24:49;2.80;70.90
20066;DHT22;10193;48.884;9.182;2022-12-11T09:27:17;2.80;70.80
20066;DHT22;10193;48.884;9.182;2022-12-11T09:29:47;2.90;70.60
20066;DHT22;10193;48.884;9.182;2022-12-11T09:32:14;2.90;69.80
20066;DHT22;10193;48.884;9.182;2022-12-11T09:34:40;2.90;70.40
20066;DHT22;10193;48.884;9.182;2022-12-11T09:37:07;3.00;70.40
20066;DHT22;10193;48.884;9.182;2022-12-11T09:39:34;3.00;70.20
20066;DHT22;10193;48.884;9.182;2022-12-11T09:42:03;3.00;70.00
20066;DHT22;10193;48.884;9.182;2022-12-11T09:44:38;3.00;70.00
20066;DHT22;10193;48.884;9.182;2022-12-11T09:47:18;3.00;69.90
20066;DHT22;10193;48.884;9.182;2022-12-11T09:49:46;3.00;69.80
20066;DHT22;10193;48.884;9.182;2022-12-11T09:52:20;3.10;70.00
20066;DHT22;10193;48.884;9.182;2022-12-11T09:54:51;3.10;70.00
20066;DHT22;10193;48.884;9.182;2022-12-11T09:57:33;3.10;70.10
20066;DHT22;10193;48.884;9.182;2022-12-11T10:00:19;3.10;70.10
20066;DHT22;10193;48.884;9.182;2022-12-11T10:03:08;3.20;70.30
20066;DHT22;10193;48.884;9.182;2022-12-11T10:05:48;3.20;70.10
20066;DHT22;10193;48.884;9.182;2022-12-11T10:08:21;3.20;70.10
20066;DHT22;10193;48.884;9.182;2022-12-11T10:10:55;3.30;70.20
20066;DHT22;10193;48.884;9.182;2022-12-11T10:13:31;3.30;70.10
20066;DHT22;10193;48.884;9.182;2022-12-11T10:16:04;3.30;70.00
20066;DHT22;10193;48.884;9.182;2022-12-11T10:18:35;3.40;70.10
20066;DHT22;10193;48.884;9.182;2022-12-11T10:21:02;3.40;70.10
20066;DHT22;10193;48.884;9.182;2022-12-11T10:23:35;3.40;70.10
20066;DHT22;10193;48.884;9.182;2022-12-11T10:26:07;3.50;70.20
20066;DHT22;10193;48.884;9.182;2022-12-11T10:28:34;3.50;70.20
20066;DHT22;10193;48.884;9.182;2022-12-11T10:31:08;3.50;70.10
20066;DHT22;10193;48.884;9.182;2022-12-11T10:33:42;3.60;70.10
20066;DHT22;10193;48.884;9.182;2022-12-11T10:36:17;3.60;69.90
20066;DHT22;10193;48.884;9.182;2022-12-11T10:38:45;3.60;69.80
20066;DHT22;10193;48.884;9.182;2022-12-11T10:41:13;3.60;69.80
20066;DHT22;10193;48.884;9.182;2022-12-11T10:43:44;3.70;69.80
20066;DHT22;10193;48.884;9.182;2022-12-11T10:46:16;3.70;69.80
20066;DHT22;10193;48.884;9.182;2022-12-11T10:48:47;3.70;69.60
20066;DHT22;10193;48.884;9.182;2022-12-11T10:51:15;3.70;69.60
20066;DHT22;10193;48.884;9.182;2022-12-11T10:53:41;3.70;69.70
20066;DHT22;10193;48.884;9.182;2022-12-11T10:56:09;3.80;69.80
20066;DHT22;10193;48.884;9.182;2022-12-11T10:58:39;3.80;69.70
20066;DHT22;10193;48.884;9.182;2022-12-11T11:01:15;3.80;69.60
20066;DHT22;10193;48.884;9.182;2022-12-11T11:03:53;3.80;69.50
20066;DHT22;10193;48.884;9.182;2022-12-11T11:06:21;3.80;69.20
20066;DHT22;10193;48.884;9.182;2022-12-11T11:08:50;3.80;69.10
20066;DHT22;10193;48.884;9.182;2022-12-11T11:11:24;3.90;69.10
20066;DHT22;10193;48.884;9.182;2022-12-11T11:14:09;3.90;69.10
20066;DHT22;10193;48.884;9.182;2022-12-11T11:16:40;3.90;69.10
20066;DHT22;10193;48.884;9.182;2022-12-11T11:19:17;3.90;69.20
20066;DHT22;10193;48.884;9.182;2022-12-11T11:21:48;4.00;69.20
20066;DHT22;10193;48.884;9.182;2022-12-11T11:24:27;4.00;69.30
20066;DHT22;10193;48.884;9.182;2022-12-11T11:26:55;4.00;69.10
20066;DHT22;10193;48.884;9.182;2022-12-11T11:29:27;4.00;69.20
20066;DHT22;10193;48.884;9.182;2022-12-11T11:31:56;4.10;69.10
20066;DHT22;10193;48.884;9.182;2022-12-11T11:34:23;4.10;69.20
20066;DHT22;10193;48.884;9.182;2022-12-11T11:36:56;4.10;69.00
20066;DHT22;10193;48.884;9.182;2022-12-11T11:39:28;4.10;68.80
20066;DHT22;10193;48.884;9.182;2022-12-11T11:42:00;4.10;68.60
20066;DHT22;10193;48.884;9.182;2022-12-11T11:44:32;4.10;68.40
20066;DHT22;10193;48.884;9.182;2022-12-11T11:47:03;4.20;68.40
20066;DHT22;10193;48.884;9.182;2022-12-11T11:49:46;4.30;68.40
20066;DHT22;10193;48.884;9.182;2022-12-11T11:52:20;4.30;68.30
20066;DHT22;10193;48.884;9.182;2022-12-11T11:54:55;4.20;68.40
20066;DHT22;10193;48.884;9.182;2022-12-11T11:57:31;4.20;68.30
20066;DHT22;10193;48.884;9.182;2022-12-11T12:00:04;4.20;68.20
20066;DHT22;10193;48.884;9.182;2022-12-11T12:02:36;4.20;68.10
20066;DHT22;10193;48.884;9.182;2022-12-11T12:05:03;4.20;67.70
20066;DHT22;10193;48.884;9.182;2022-12-11T12:07:38;4.20;68.10
20066;DHT22;10193;48.884;9.182;2022-12-11T12:10:28;4.20;67.60
20066;DHT22;10193;48.884;9.182;2022-12-11T12:13:00;4.20;67.30
20066;DHT22;10193;48.884;9.182;2022-12-11T12:15:36;4.20;67.60
20066;DHT22;10193;48.884;9.182;2022-12-11T12:18:12;4.10;67.50
20066;DHT22;10193;48.884;9.182;2022-12-11T12:20:46;4.10;67.30
20066;DHT22;10193;48.884;9.182;2022-12-11T12:23:32;4.10;67.40
20066;DHT22;10193;48.884;9.182;2022-12-11T12:26:09;4.00;67.30
20066;DHT22;10193;48.884;9.182;2022-12-11T12:28:42;4.00;67.50
20066;DHT22;10193;48.884;9.182;2022-12-11T12:31:31;4.00;67.70
20066;DHT22;10193;48.884;9.182;2022-12-11T12:34:09;4.00;67.80
20066;DHT22;10193;48.884;9.182;2022-12-11T12:36:45;4.00;68.00
20066;DHT22;10193;48.884;9.182;2022-12-11T12:39:21;4.00;67.90
20066;DHT22;10193;48.884;9.182;2022-12-11T12:41:56;4.00;68.00
20066;DHT22;10193;48.884;9.182;2022-12-11T12:44:24;4.00;68.00
20066;DHT22;10193;48.884;9.182;2022-12-11T12:46:56;4.10;68.10
20066;DHT22;10193;48.884;9.182;2022-12-11T12:49:33;4.10;68.00
20066;DHT22;10193;48.884;9.182;2022-12-11T12:52:01;4.00;67.70
20066;DHT22;10193;48.884;9.182;2022-12-11T12:54:31;4.10;67.80
20066;DHT22;10193;48.884;9.182;2022-12-11T12:57:01;4.10;68.00
20066;DHT22;10193;48.884;9.182;2022-12-11T12:59:28;4.10;68.00
20066;DHT22;10193;48.884;9.182;2022-12-11T13:01:57;4.10;67.80
20066;DHT22;10193;48.884;9.182;2022-12-11T13:04:33;4.10;67.50
20066;DHT22;10193;48.884;9.182;2022-12-11T13:07:15;4.10;67.40
20066;DHT22;10193;48.884;9.182;2022-12-11T13:09:53;4.00;67.20
20066;DHT22;10193;48.884;9.182;2022-12-11T13:12:31;4.00;67.30
20066;DHT22;10193;48.884;9.182;2022-12-11T13:14:58;4.00;66.80
20066;DHT22;10193;48.884;9.182;2022-12-11T13:17:35;4.00;66.90
20066;DHT22;10193;48.884;9.182;2022-12-11T13:20:15;3.90;66.60
20066;DHT22;10193;48.884;9.182;2022-12-11T13:22:49;3.90;66.70
20066;DHT22;10193;48.884;9.182;2022-12-11T13:25:22;3.90;66.80
20066;DHT22;10193;48.884;9.182;2022-12-11T13:27:49;3.90;66.90
20066;DHT22;10193;48.884;9.182;2022-12-11T13:30:23;3.90;66.90
20066;DHT22;10193;48.884;9.182;2022-12-11T13:32:58;3.80;66.80
20066;DHT22;10193;48.884;9.182;2022-12-11T13:35:29;3.80;67.10
20066;DHT22;10193;48.884;9.182;2022-12-11T13:38:02;3.80;67.30
20066;DHT22;10193;48.884;9.182;2022-12-11T13:40:35;3.80;67.10
20066;DHT22;10193;48.884;9.182;2022-12-11T13:43:05;3.80;67.20
20066;DHT22;10193;48.884;9.182;2022-12-11T13:45:38;3.80;67.30
20066;DHT22;10193;48.884;9.182;2022-12-11T13:48:15;3.80;67.30
20066;DHT22;10193;48.884;9.182;2022-12-11T13:50:45;3.80;67.10
20066;DHT22;10193;48.884;9.182;2022-12-11T13:53:15;3.80;68.00
20066;DHT22;10193;48.884;9.182;2022-12-11T13:55:42;3.80;67.30
20066;DHT22;10193;48.884;9.182;2022-12-11T13:58:17;3.90;67.40
20066;DHT22;10193;48.884;9.182;2022-12-11T14:00:55;3.90;67.40
20066;DHT22;10193;48.884;9.182;2022-12-11T14:03:25;3.90;67.40
20066;DHT22;10193;48.884;9.182;2022-12-11T14:05:53;3.90;67.50
20066;DHT22;10193;48.884;9.182;2022-12-11T14:08:30;3.90;67.50
20066;DHT22;10193;48.884;9.182;2022-12-11T14:10:58;3.90;67.60
20066;DHT22;10193;48.884;9.182;2022-12-11T14:13:28;3.90;67.50
20066;DHT22;10193;48.884;9.182;2022-12-11T14:15:56;3.90;67.40
20066;DHT22;10193;48.884;9.182;2022-12-11T14:18:26;3.90;67.20
20066;DHT22;10193;48.884;9.182;2022-12-11T14:20:56;3.90;67.20
20066;DHT22;10193;48.884;9.182;2022-12-11T14:23:26;3.90;67.10
20066;DHT22;10193;48.884;9.182;2022-12-11T14:25:55;3.90;66.90
20066;DHT22;10193;48.884;9.182;2022-12-11T14:28:23;3.80;66.90
20066;DHT22;10193;48.884;9.182;2022-12-11T14:30:53;3.80;66.90
20066;DHT22;10193;48.884;9.182;2022-12-11T14:33:22;3.80;66.90
20066;DHT22;10193;48.884;9.182;2022-12-11T14:35:51;3.80;66.90
20066;DHT22;10193;48.884;9.182;2022-12-11T14:38:24;3.80;66.90
20066;DHT22;10193;48.884;9.182;2022-12-11T14:40:54;3.80;66.60
20066;DHT22;10193;48.884;9.182;2022-12-11T14:43:24;3.70;66.40
20066;DHT22;10193;48.884;9.182;2022-12-11T14:45:55;3.70;66.40
20066;DHT22;10193;48.884;9.182;2022-12-11T14:48:26;3.70;66.40
20066;DHT22;10193;48.884;9.182;2022-12-11T14:50:55;3.60;66.30
20066;DHT22;10193;48.884;9.182;2022-12-11T14:53:27;3.60;66.40
20066;DHT22;10193;48.884;9.182;2022-12-11T14:55:57;3.60;66.30
20066;DHT22;10193;48.884;9.182;2022-12-11T14:58:26;3.50;66.30
20066;DHT22;10193;48.884;9.182;2022-12-11T15:00:57;3.50;66.30
20066;DHT22;10193;48.884;9.182;2022-12-11T15:03:30;3.50;66.20
20066;DHT22;10193;48.884;9.182;2022-12-11T15:05:58;3.40;66.20
20066;DHT22;10193;48.884;9.182;2022-12-11T15:08:28;3.40;66.30
20066;DHT22;10193;48.884;9.182;2022-12-11T15:11:00;3.40;66.30
20066;DHT22;10193;48.884;9.182;2022-12-11T15:13:27;3.30;66.20
20066;DHT22;10193;48.884;9.182;2022-12-11T15:15:54;3.30;66.20
20066;DHT22;10193;48.884;9.182;2022-12-11T15:18:24;3.30;66.20
20066;DHT22;10193;48.884;9.182;2022-12-11T15:20:54;3.20;66.10
20066;DHT22;10193;48.884;9.182;2022-12-11T15:23:21;3.20;66.10
20066;DHT22;10193;48.884;9.182;2022-12-11T15:25:50;3.10;65.80
20066;DHT22;10193;48.884;9.182;2022-12-11T15:28:28;3.00;65.70
20066;DHT22;10193;48.884;9.182;2022-12-11T15:30:57;2.90;65.80
20066;DHT22;10193;48.884;9.182;2022-12-11T15:33:26;2.90;66.00
20066;DHT22;10193;48.884;9.182;2022-12-11T15:35:55;2.90;66.10
20066;DHT22;10193;48.884;9.182;2022-12-11T15:38:34;2.90;66.30
20066;DHT22;10193;48.884;9.182;2022-12-11T15:41:03;2.80;66.30
20066;DHT22;10193;48.884;9.182;2022-12-11T15:43:34;2.80;66.30
20066;DHT22;10193;48.884;9.182;2022-12-11T15:46:01;2.70;66.30
20066;DHT22;10193;48.884;9.182;2022-12-11T15:48:28;2.70;66.40
20066;DHT22;10193;48.884;9.182;2022-12-11T15:50:55;2.70;66.40
20066;DHT22;10193;48.884;9.182;2022-12-11T15:53:22;2.70;66.30
20066;DHT22;10193;48.884;9.182;2022-12-11T15:55:48;2.70;66.30
20066;DHT22;10193;48.884;9.182;2022-12-11T15:58:19;2.70;66.40
20066;DHT22;10193;48.884;9.182;2022-12-11T16:00:46;2.60;66.40
20066;DHT22;10193;48.884;9.182;2022-12-11T16:03:15;2.60;66.40
20066;DHT22;10193;48.884;9.182;2022-12-11T16:05:42;2.60;66.50